sensor_id;sensor_type;location;lat;lon;timestamp;P1;durP1;ratioP1;P2;durP2;ratioP2
51190;SDS011;37253;48.736;9.294;2022-11-18T00:00:52;3.00;;;0.70;;
51190;SDS011;37253;48.736;9.294;2022-11-18T00:02:52;3.95;;;0.60;;
51190;SDS011;37253;48.736;9.294;2022-11-18T00:04:53;1.60;;;0.70;;
51190;SDS011;37253;48.736;9.294;2022-11-18T00:06:53;1.13;;;0.60;;
51190;SDS011;37253;48.736;9.294;2022-11-18T00:08:53;3.65;;;0.68;;
51190;SDS011;37253;48.736;9.294;2022-11-18T00:10:54;0.68;;;0.47;;
51190;SDS011;37253;48.736;9.294;2022-11-18T00:12:55;0.82;;;0.60;;
51190;SDS011;37253;48.736;9.294;2022-11-18T00:15:14;2.22;;;0.40;;
51190;SDS011;37253;48.736;9.294;2022-11-18T00:17:14;0.85;;;0.40;;
51190;SDS011;37253;48.736;9.294;2022-11-18T00:19:15;0.90;;;0.40;;
51190;SDS011;37253;48.736;9.294;2022-11-18T00:21:16;0.63;;;0.50;;
51190;SDS011;37253;48.736;9.294;2022-11-18T00:23:16;0.70;;;0.40;;
51190;SDS011;37253;48.736;9.294;2022-11-18T00:25:16;0.77;;;0.35;;
51190;SDS011;37253;48.736;9.294;2022-11-18T00:27:17;2.15;;;0.60;;
51190;SDS011;37253;48.736;9.294;2022-11-18T00:29:17;0.80;;;0.45;;
51190;SDS011;37253;48.736;9.294;2022-11-18T00:31:18;2.03;;;0.50;;
51190;SDS011;37253;48.736;9.294;2022-11-18T00:33:18;1.05;;;0.60;;
51190;SDS011;37253;48.736;9.294;2022-11-18T00:35:19;2.25;;;0.50;;
51190;SDS011;37253;48.736;9.294;2022-11-18T00:37:19;2.30;;;0.35;;
51190;SDS011;37253;48.736;9.294;2022-11-18T00:39:19;1.83;;;0.57;;
51190;SDS011;37253;48.736;9.294;2022-11-18T00:41:20;1.67;;;0.40;;
51190;SDS011;37253;48.736;9.294;2022-11-18T00:43:20;1.23;;;0.55;;
51190;SDS011;37253;48.736;9.294;2022-11-18T00:45:20;1.48;;;0.63;;
51190;SDS011;37253;48.736;9.294;2022-11-18T00:47:21;2.65;;;0.40;;
51190;SDS011;37253;48.736;9.294;2022-11-18T00:49:22;1.20;;;0.40;;
51190;SDS011;37253;48.736;9.294;2022-11-18T00:51:23;1.58;;;0.50;;
51190;SDS011;37253;48.736;9.294;2022-11-18T00:53:24;2.50;;;0.50;;
51190;SDS011;37253;48.736;9.294;2022-11-18T00:55:25;0.82;;;0.50;;
51190;SDS011;37253;48.736;9.294;2022-11-18T00:57:25;2.72;;;0.47;;
51190;SDS011;37253;48.736;9.294;2022-11-18T00:59:26;0.95;;;0.60;;
51190;SDS011;37253;48.736;9.294;2022-11-18T01:01:26;1.85;;;0.85;;
51190;SDS011;37253;48.736;9.294;2022-11-18T01:03:27;1.67;;;0.40;;
51190;SDS011;37253;48.736;9.294;2022-11-18T01:05:27;2.35;;;0.50;;
51190;SDS011;37253;48.736;9.294;2022-11-18T01:07:27;1.90;;;0.50;;
51190;SDS011;37253;48.736;9.294;2022-11-18T01:09:28;1.17;;;0.50;;
51190;SDS011;37253;48.736;9.294;2022-11-18T01:11:28;1.42;;;0.50;;
51190;SDS011;37253;48.736;9.294;2022-11-18T01:13:50;1.63;;;0.43;;
51190;SDS011;37253;48.736;9.294;2022-11-18T01:15:53;1.13;;;0.40;;
51190;SDS011;37253;48.736;9.294;2022-11-18T01:17:55;2.03;;;0.50;;
51190;SDS011;37253;48.736;9.294;2022-11-18T01:19:55;0.60;;;0.40;;
51190;SDS011;37253;48.736;9.294;2022-11-18T01:21:55;0.73;;;0.45;;
51190;SDS011;37253;48.736;9.294;2022-11-18T01:23:56;1.02;;;0.28;;
51190;SDS011;37253;48.736;9.294;2022-11-18T01:25:56;0.77;;;0.40;;
51190;SDS011;37253;48.736;9.294;2022-11-18T01:27:57;1.15;;;0.50;;
51190;SDS011;37253;48.736;9.294;2022-11-18T01:29:57;1.73;;;0.60;;
51190;SDS011;37253;48.736;9.294;2022-11-18T01:31:57;1.05;;;0.50;;
51190;SDS011;37253;48.736;9.294;2022-11-18T01:33:57;1.02;;;0.60;;
51190;SDS011;37253;48.736;9.294;2022-11-18T01:35:58;1.38;;;0.43;;
51190;SDS011;37253;48.736;9.294;2022-11-18T01:37:58;0.38;;;0.35;;
51190;SDS011;37253;48.736;9.294;2022-11-18T01:39:58;1.42;;;0.55;;
51190;SDS011;37253;48.736;9.294;2022-11-18T01:41:59;1.60;;;0.40;;
51190;SDS011;37253;48.736;9.294;2022-11-18T01:44:00;0.98;;;0.30;;
51190;SDS011;37253;48.736;9.294;2022-11-18T01:46:02;2.38;;;0.40;;
51190;SDS011;37253;48.736;9.294;2022-11-18T01:48:10;1.48;;;0.45;;
51190;SDS011;37253;48.736;9.294;2022-11-18T01:50:25;1.42;;;0.50;;
51190;SDS011;37253;48.736;9.294;2022-11-18T01:52:26;0.75;;;0.35;;
51190;SDS011;37253;48.736;9.294;2022-11-18T01:54:38;1.60;;;0.50;;
51190;SDS011;37253;48.736;9.294;2022-11-18T01:56:44;0.82;;;0.40;;
51190;SDS011;37253;48.736;9.294;2022-11-18T01:58:50;1.02;;;0.40;;
51190;SDS011;37253;48.736;9.294;2022-11-18T02:00:53;0.65;;;0.50;;
51190;SDS011;37253;48.736;9.294;2022-11-18T02:02:54;1.10;;;0.40;;
51190;SDS011;37253;48.736;9.294;2022-11-18T02:04:55;0.85;;;0.40;;
51190;SDS011;37253;48.736;9.294;2022-11-18T02:06:56;1.00;;;0.45;;
51190;SDS011;37253;48.736;9.294;2022-11-18T02:08:56;2.00;;;0.47;;
51190;SDS011;37253;48.736;9.294;2022-11-18T02:10:57;1.15;;;0.30;;
51190;SDS011;37253;48.736;9.294;2022-11-18T02:12:57;1.25;;;0.50;;
51190;SDS011;37253;48.736;9.294;2022-11-18T02:14:58;1.20;;;0.50;;
51190;SDS011;37253;48.736;9.294;2022-11-18T02:33:07;0.70;;;0.30;;
51190;SDS011;37253;48.736;9.294;2022-11-18T02:37:32;0.60;;;0.32;;
51190;SDS011;37253;48.736;9.294;2022-11-18T02:39:37;0.65;;;0.30;;
51190;SDS011;37253;48.736;9.294;2022-11-18T02:41:41;0.88;;;0.40;;
51190;SDS011;37253;48.736;9.294;2022-11-18T02:45:50;1.08;;;0.40;;
51190;SDS011;37253;48.736;9.294;2022-11-18T02:47:53;0.80;;;0.30;;
51190;SDS011;37253;48.736;9.294;2022-11-18T02:49:57;0.90;;;0.37;;
51190;SDS011;37253;48.736;9.294;2022-11-18T02:52:00;0.82;;;0.30;;
51190;SDS011;37253;48.736;9.294;2022-11-18T02:54:02;1.90;;;0.50;;
51190;SDS011;37253;48.736;9.294;2022-11-18T02:56:05;0.55;;;0.30;;
51190;SDS011;37253;48.736;9.294;2022-11-18T02:58:06;0.65;;;0.38;;
51190;SDS011;37253;48.736;9.294;2022-11-18T03:00:06;0.73;;;0.40;;
51190;SDS011;37253;48.736;9.294;2022-11-18T03:02:08;0.35;;;0.30;;
51190;SDS011;37253;48.736;9.294;2022-11-18T03:04:14;0.60;;;0.40;;
51190;SDS011;37253;48.736;9.294;2022-11-18T03:06:36;1.05;;;0.40;;
51190;SDS011;37253;48.736;9.294;2022-11-18T03:08:38;0.60;;;0.40;;
51190;SDS011;37253;48.736;9.294;2022-11-18T03:11:03;1.02;;;0.50;;
51190;SDS011;37253;48.736;9.294;2022-11-18T03:13:10;1.48;;;0.43;;
51190;SDS011;37253;48.736;9.294;2022-11-18T03:17:33;1.98;;;0.40;;
51190;SDS011;37253;48.736;9.294;2022-11-18T03:25:11;0.52;;;0.30;;
51190;SDS011;37253;48.736;9.294;2022-11-18T03:27:21;0.32;;;0.30;;
51190;SDS011;37253;48.736;9.294;2022-11-18T03:29:29;0.40;;;0.30;;
51190;SDS011;37253;48.736;9.294;2022-11-18T03:31:40;0.70;;;0.40;;
51190;SDS011;37253;48.736;9.294;2022-11-18T03:33:47;0.22;;;0.22;;
51190;SDS011;37253;48.736;9.294;2022-11-18T03:35:50;0.55;;;0.30;;
51190;SDS011;37253;48.736;9.294;2022-11-18T03:37:54;0.40;;;0.30;;
51190;SDS011;37253;48.736;9.294;2022-11-18T03:40:01;1.35;;;0.40;;
51190;SDS011;37253;48.736;9.294;2022-11-18T03:42:39;1.33;;;0.40;;
51190;SDS011;37253;48.736;9.294;2022-11-18T03:44:44;0.98;;;0.40;;
51190;SDS011;37253;48.736;9.294;2022-11-18T03:47:06;0.43;;;0.30;;
51190;SDS011;37253;48.736;9.294;2022-11-18T03:49:10;1.42;;;0.43;;
51190;SDS011;37253;48.736;9.294;2022-11-18T03:51:14;1.05;;;0.25;;
51190;SDS011;37253;48.736;9.294;2022-11-18T03:53:17;0.50;;;0.30;;
51190;SDS011;37253;48.736;9.294;2022-11-18T03:55:23;0.60;;;0.30;;
51190;SDS011;37253;48.736;9.294;2022-11-18T03:57:34;0.85;;;0.35;;
51190;SDS011;37253;48.736;9.294;2022-11-18T03:59:42;0.45;;;0.30;;
51190;SDS011;37253;48.736;9.294;2022-11-18T04:01:46;0.85;;;0.32;;
51190;SDS011;37253;48.736;9.294;2022-11-18T04:03:50;0.57;;;0.40;;
51190;SDS011;37253;48.736;9.294;2022-11-18T04:05:50;1.23;;;0.30;;
51190;SDS011;37253;48.736;9.294;2022-11-18T04:07:55;0.30;;;0.20;;
51190;SDS011;37253;48.736;9.294;2022-11-18T04:12:07;0.45;;;0.30;;
51190;SDS011;37253;48.736;9.294;2022-11-18T04:14:10;0.40;;;0.30;;
51190;SDS011;37253;48.736;9.294;2022-11-18T04:16:12;0.50;;;0.20;;
51190;SDS011;37253;48.736;9.294;2022-11-18T04:18:12;0.70;;;0.38;;
51190;SDS011;37253;48.736;9.294;2022-11-18T04:20:14;0.50;;;0.40;;
51190;SDS011;37253;48.736;9.294;2022-11-18T04:22:17;0.85;;;0.40;;
51190;SDS011;37253;48.736;9.294;2022-11-18T04:24:18;0.22;;;0.20;;
51190;SDS011;37253;48.736;9.294;2022-11-18T04:26:18;1.77;;;0.45;;
51190;SDS011;37253;48.736;9.294;2022-11-18T04:28:18;0.30;;;0.20;;
51190;SDS011;37253;48.736;9.294;2022-11-18T04:30:19;1.50;;;0.35;;
51190;SDS011;37253;48.736;9.294;2022-11-18T04:32:19;0.88;;;0.30;;
51190;SDS011;37253;48.736;9.294;2022-11-18T04:34:19;0.57;;;0.30;;
51190;SDS011;37253;48.736;9.294;2022-11-18T04:36:20;0.63;;;0.28;;
51190;SDS011;37253;48.736;9.294;2022-11-18T04:38:20;0.47;;;0.30;;
51190;SDS011;37253;48.736;9.294;2022-11-18T04:40:20;0.57;;;0.30;;
51190;SDS011;37253;48.736;9.294;2022-11-18T04:42:21;0.63;;;0.30;;
51190;SDS011;37253;48.736;9.294;2022-11-18T04:44:31;0.38;;;0.22;;
51190;SDS011;37253;48.736;9.294;2022-11-18T04:46:31;0.40;;;0.30;;
51190;SDS011;37253;48.736;9.294;2022-11-18T04:48:32;1.17;;;0.30;;
51190;SDS011;37253;48.736;9.294;2022-11-18T04:50:32;0.20;;;0.20;;
51190;SDS011;37253;48.736;9.294;2022-11-18T04:52:33;0.40;;;0.30;;
51190;SDS011;37253;48.736;9.294;2022-11-18T04:54:33;0.90;;;0.40;;
51190;SDS011;37253;48.736;9.294;2022-11-18T04:56:33;0.30;;;0.30;;
51190;SDS011;37253;48.736;9.294;2022-11-18T04:58:34;0.43;;;0.25;;
51190;SDS011;37253;48.736;9.294;2022-11-18T05:00:34;0.35;;;0.30;;
51190;SDS011;37253;48.736;9.294;2022-11-18T05:02:34;1.20;;;0.30;;
51190;SDS011;37253;48.736;9.294;2022-11-18T05:04:35;0.40;;;0.20;;
51190;SDS011;37253;48.736;9.294;2022-11-18T05:06:35;0.30;;;0.20;;
51190;SDS011;37253;48.736;9.294;2022-11-18T05:08:35;0.35;;;0.20;;
51190;SDS011;37253;48.736;9.294;2022-11-18T05:10:36;0.28;;;0.20;;
51190;SDS011;37253;48.736;9.294;2022-11-18T05:12:37;0.30;;;0.20;;
51190;SDS011;37253;48.736;9.294;2022-11-18T05:14:49;0.28;;;0.20;;
51190;SDS011;37253;48.736;9.294;2022-11-18T05:16:50;0.50;;;0.40;;
51190;SDS011;37253;48.736;9.294;2022-11-18T05:18:50;0.22;;;0.22;;
51190;SDS011;37253;48.736;9.294;2022-11-18T05:20:50;0.43;;;0.30;;
51190;SDS011;37253;48.736;9.294;2022-11-18T05:22:51;0.60;;;0.30;;
51190;SDS011;37253;48.736;9.294;2022-11-18T05:24:51;2.05;;;0.20;;
51190;SDS011;37253;48.736;9.294;2022-11-18T05:26:52;0.47;;;0.30;;
51190;SDS011;37253;48.736;9.294;2022-11-18T05:28:52;0.28;;;0.28;;
51190;SDS011;37253;48.736;9.294;2022-11-18T05:30:53;0.30;;;0.10;;
51190;SDS011;37253;48.736;9.294;2022-11-18T05:32:53;0.55;;;0.40;;
51190;SDS011;37253;48.736;9.294;2022-11-18T05:34:53;0.82;;;0.20;;
51190;SDS011;37253;48.736;9.294;2022-11-18T05:36:54;0.35;;;0.20;;
51190;SDS011;37253;48.736;9.294;2022-11-18T05:38:56;0.55;;;0.30;;
51190;SDS011;37253;48.736;9.294;2022-11-18T05:40:57;0.50;;;0.30;;
51190;SDS011;37253;48.736;9.294;2022-11-18T05:42:58;1.13;;;0.30;;
51190;SDS011;37253;48.736;9.294;2022-11-18T05:45:10;1.17;;;0.28;;
51190;SDS011;37253;48.736;9.294;2022-11-18T05:47:10;3.40;;;0.30;;
51190;SDS011;37253;48.736;9.294;2022-11-18T05:49:10;0.57;;;0.32;;
51190;SDS011;37253;48.736;9.294;2022-11-18T05:51:11;1.08;;;0.30;;
51190;SDS011;37253;48.736;9.294;2022-11-18T05:53:11;0.50;;;0.30;;
51190;SDS011;37253;48.736;9.294;2022-11-18T05:55:12;2.38;;;0.40;;
51190;SDS011;37253;48.736;9.294;2022-11-18T05:57:13;0.68;;;0.30;;
51190;SDS011;37253;48.736;9.294;2022-11-18T05:59:13;0.32;;;0.22;;
51190;SDS011;37253;48.736;9.294;2022-11-18T06:01:20;0.50;;;0.20;;
51190;SDS011;37253;48.736;9.294;2022-11-18T06:03:25;0.60;;;0.20;;
51190;SDS011;37253;48.736;9.294;2022-11-18T06:05:26;0.63;;;0.25;;
51190;SDS011;37253;48.736;9.294;2022-11-18T06:07:34;4.68;;;0.40;;
51190;SDS011;37253;48.736;9.294;2022-11-18T06:09:38;1.73;;;0.30;;
51190;SDS011;37253;48.736;9.294;2022-11-18T06:11:44;1.58;;;0.30;;
51190;SDS011;37253;48.736;9.294;2022-11-18T06:13:52;1.15;;;0.40;;
51190;SDS011;37253;48.736;9.294;2022-11-18T06:15:56;2.83;;;0.45;;
51190;SDS011;37253;48.736;9.294;2022-11-18T06:18:01;2.58;;;0.50;;
51190;SDS011;37253;48.736;9.294;2022-11-18T06:20:03;2.50;;;0.50;;
51190;SDS011;37253;48.736;9.294;2022-11-18T06:22:04;3.33;;;0.52;;
51190;SDS011;37253;48.736;9.294;2022-11-18T06:24:05;3.25;;;0.80;;
51190;SDS011;37253;48.736;9.294;2022-11-18T06:26:08;7.03;;;1.00;;
51190;SDS011;37253;48.736;9.294;2022-11-18T06:28:11;8.27;;;0.88;;
51190;SDS011;37253;48.736;9.294;2022-11-18T06:30:13;8.57;;;1.08;;
51190;SDS011;37253;48.736;9.294;2022-11-18T06:32:13;4.95;;;0.63;;
51190;SDS011;37253;48.736;9.294;2022-11-18T06:34:14;3.60;;;0.70;;
51190;SDS011;37253;48.736;9.294;2022-11-18T06:36:14;7.68;;;0.75;;
51190;SDS011;37253;48.736;9.294;2022-11-18T06:38:14;8.43;;;0.80;;
51190;SDS011;37253;48.736;9.294;2022-11-18T06:40:15;8.80;;;0.90;;
51190;SDS011;37253;48.736;9.294;2022-11-18T06:42:15;6.55;;;0.70;;
51190;SDS011;37253;48.736;9.294;2022-11-18T06:44:34;5.68;;;0.90;;
51190;SDS011;37253;48.736;9.294;2022-11-18T06:46:34;6.57;;;0.60;;
51190;SDS011;37253;48.736;9.294;2022-11-18T06:48:53;9.00;;;0.90;;
51190;SDS011;37253;48.736;9.294;2022-11-18T06:50:53;7.07;;;0.68;;
51190;SDS011;37253;48.736;9.294;2022-11-18T06:52:54;3.88;;;0.68;;
51190;SDS011;37253;48.736;9.294;2022-11-18T06:54:54;4.00;;;0.90;;
51190;SDS011;37253;48.736;9.294;2022-11-18T06:56:54;1.85;;;0.57;;
51190;SDS011;37253;48.736;9.294;2022-11-18T06:58:55;1.65;;;0.47;;
51190;SDS011;37253;48.736;9.294;2022-11-18T07:00:57;8.27;;;0.93;;
51190;SDS011;37253;48.736;9.294;2022-11-18T07:02:57;8.90;;;0.70;;
51190;SDS011;37253;48.736;9.294;2022-11-18T07:04:57;7.15;;;0.93;;
51190;SDS011;37253;48.736;9.294;2022-11-18T07:06:58;6.13;;;0.95;;
51190;SDS011;37253;48.736;9.294;2022-11-18T07:08:59;6.18;;;0.80;;
51190;SDS011;37253;48.736;9.294;2022-11-18T07:11:00;6.60;;;0.82;;
51190;SDS011;37253;48.736;9.294;2022-11-18T07:13:01;7.60;;;1.00;;
51190;SDS011;37253;48.736;9.294;2022-11-18T07:15:01;6.43;;;0.80;;
51190;SDS011;37253;48.736;9.294;2022-11-18T07:17:01;2.88;;;0.60;;
51190;SDS011;37253;48.736;9.294;2022-11-18T07:19:06;2.40;;;0.80;;
51190;SDS011;37253;48.736;9.294;2022-11-18T07:21:15;5.82;;;0.70;;
51190;SDS011;37253;48.736;9.294;2022-11-18T07:23:16;11.70;;;1.15;;
51190;SDS011;37253;48.736;9.294;2022-11-18T07:25:17;8.77;;;1.08;;
51190;SDS011;37253;48.736;9.294;2022-11-18T07:27:17;5.05;;;0.82;;
51190;SDS011;37253;48.736;9.294;2022-11-18T07:29:17;3.80;;;0.90;;
51190;SDS011;37253;48.736;9.294;2022-11-18T07:31:18;5.65;;;0.95;;
51190;SDS011;37253;48.736;9.294;2022-11-18T07:33:19;6.03;;;1.00;;
51190;SDS011;37253;48.736;9.294;2022-11-18T07:35:19;8.05;;;1.17;;
51190;SDS011;37253;48.736;9.294;2022-11-18T07:37:20;4.10;;;0.70;;
51190;SDS011;37253;48.736;9.294;2022-11-18T07:39:20;5.72;;;0.75;;
51190;SDS011;37253;48.736;9.294;2022-11-18T07:41:21;1.90;;;0.73;;
51190;SDS011;37253;48.736;9.294;2022-11-18T07:43:23;6.70;;;0.80;;
51190;SDS011;37253;48.736;9.294;2022-11-18T07:45:23;2.78;;;0.77;;
51190;SDS011;37253;48.736;9.294;2022-11-18T07:47:24;1.92;;;0.60;;
51190;SDS011;37253;48.736;9.294;2022-11-18T07:49:24;4.60;;;0.70;;
51190;SDS011;37253;48.736;9.294;2022-11-18T07:51:26;2.38;;;0.70;;
51190;SDS011;37253;48.736;9.294;2022-11-18T07:53:31;3.42;;;0.57;;
51190;SDS011;37253;48.736;9.294;2022-11-18T07:55:31;2.75;;;0.60;;
51190;SDS011;37253;48.736;9.294;2022-11-18T07:57:32;5.10;;;0.60;;
51190;SDS011;37253;48.736;9.294;2022-11-18T07:59:32;5.15;;;0.80;;
51190;SDS011;37253;48.736;9.294;2022-11-18T08:01:32;6.65;;;0.88;;
51190;SDS011;37253;48.736;9.294;2022-11-18T08:03:33;4.15;;;0.90;;
51190;SDS011;37253;48.736;9.294;2022-11-18T08:05:33;4.07;;;0.50;;
51190;SDS011;37253;48.736;9.294;2022-11-18T08:07:34;3.17;;;0.70;;
51190;SDS011;37253;48.736;9.294;2022-11-18T08:09:34;5.38;;;0.70;;
51190;SDS011;37253;48.736;9.294;2022-11-18T08:11:34;7.93;;;0.75;;
51190;SDS011;37253;48.736;9.294;2022-11-18T08:13:35;5.10;;;0.70;;
51190;SDS011;37253;48.736;9.294;2022-11-18T08:15:39;5.68;;;0.80;;
51190;SDS011;37253;48.736;9.294;2022-11-18T08:17:40;1.80;;;0.50;;
51190;SDS011;37253;48.736;9.294;2022-11-18T08:19:40;3.25;;;0.52;;
51190;SDS011;37253;48.736;9.294;2022-11-18T08:21:41;1.65;;;0.70;;
51190;SDS011;37253;48.736;9.294;2022-11-18T08:23:41;2.70;;;0.70;;
51190;SDS011;37253;48.736;9.294;2022-11-18T08:25:42;2.30;;;0.60;;
51190;SDS011;37253;48.736;9.294;2022-11-18T08:27:43;3.83;;;0.80;;
51190;SDS011;37253;48.736;9.294;2022-11-18T08:29:43;4.93;;;0.80;;
51190;SDS011;37253;48.736;9.294;2022-11-18T08:31:43;7.35;;;1.15;;
51190;SDS011;37253;48.736;9.294;2022-11-18T08:33:44;8.13;;;1.08;;
51190;SDS011;37253;48.736;9.294;2022-11-18T08:35:44;5.88;;;1.15;;
51190;SDS011;37253;48.736;9.294;2022-11-18T08:37:45;3.38;;;1.08;;
51190;SDS011;37253;48.736;9.294;2022-11-18T08:39:45;8.25;;;1.00;;
51190;SDS011;37253;48.736;9.294;2022-11-18T08:41:45;4.47;;;1.13;;
51190;SDS011;37253;48.736;9.294;2022-11-18T08:43:46;3.65;;;1.10;;
51190;SDS011;37253;48.736;9.294;2022-11-18T08:45:46;4.05;;;1.00;;
51190;SDS011;37253;48.736;9.294;2022-11-18T08:47:47;4.13;;;1.00;;
51190;SDS011;37253;48.736;9.294;2022-11-18T08:49:47;5.38;;;1.10;;
51190;SDS011;37253;48.736;9.294;2022-11-18T08:51:48;9.50;;;1.20;;
51190;SDS011;37253;48.736;9.294;2022-11-18T08:53:48;14.30;;;1.27;;
51190;SDS011;37253;48.736;9.294;2022-11-18T08:55:55;6.13;;;1.10;;
51190;SDS011;37253;48.736;9.294;2022-11-18T08:57:57;6.65;;;1.00;;
51190;SDS011;37253;48.736;9.294;2022-11-18T08:59:57;9.10;;;1.20;;
51190;SDS011;37253;48.736;9.294;2022-11-18T09:01:57;12.95;;;1.10;;
51190;SDS011;37253;48.736;9.294;2022-11-18T09:03:57;7.32;;;1.35;;
51190;SDS011;37253;48.736;9.294;2022-11-18T09:06:17;5.35;;;1.13;;
51190;SDS011;37253;48.736;9.294;2022-11-18T09:08:19;11.73;;;1.13;;
51190;SDS011;37253;48.736;9.294;2022-11-18T09:10:20;4.20;;;1.13;;
51190;SDS011;37253;48.736;9.294;2022-11-18T09:12:21;5.38;;;1.10;;
51190;SDS011;37253;48.736;9.294;2022-11-18T09:14:21;8.18;;;1.02;;
51190;SDS011;37253;48.736;9.294;2022-11-18T09:16:22;4.82;;;1.02;;
51190;SDS011;37253;48.736;9.294;2022-11-18T09:18:23;6.38;;;0.75;;
51190;SDS011;37253;48.736;9.294;2022-11-18T09:20:23;5.40;;;1.05;;
51190;SDS011;37253;48.736;9.294;2022-11-18T09:22:25;4.75;;;0.80;;
51190;SDS011;37253;48.736;9.294;2022-11-18T09:24:25;3.17;;;0.98;;
51190;SDS011;37253;48.736;9.294;2022-11-18T09:26:25;5.70;;;0.73;;
51190;SDS011;37253;48.736;9.294;2022-11-18T09:28:26;9.43;;;1.17;;
51190;SDS011;37253;48.736;9.294;2022-11-18T09:30:27;5.75;;;1.17;;
51190;SDS011;37253;48.736;9.294;2022-11-18T09:32:27;4.55;;;0.88;;
51190;SDS011;37253;48.736;9.294;2022-11-18T09:34:27;5.90;;;1.10;;
51190;SDS011;37253;48.736;9.294;2022-11-18T09:36:28;2.05;;;0.70;;
51190;SDS011;37253;48.736;9.294;2022-11-18T09:38:28;3.85;;;0.70;;
51190;SDS011;37253;48.736;9.294;2022-11-18T09:40:29;3.75;;;1.00;;
51190;SDS011;37253;48.736;9.294;2022-11-18T09:42:39;5.85;;;0.88;;
51190;SDS011;37253;48.736;9.294;2022-11-18T09:49:29;4.22;;;0.90;;
51190;SDS011;37253;48.736;9.294;2022-11-18T09:51:32;7.30;;;0.90;;
51190;SDS011;37253;48.736;9.294;2022-11-18T09:53:38;9.90;;;0.90;;
51190;SDS011;37253;48.736;9.294;2022-11-18T09:57:43;3.03;;;0.82;;
51190;SDS011;37253;48.736;9.294;2022-11-18T09:59:45;4.10;;;0.80;;
51190;SDS011;37253;48.736;9.294;2022-11-18T10:01:46;5.05;;;0.85;;
51190;SDS011;37253;48.736;9.294;2022-11-18T10:03:47;8.45;;;0.80;;
51190;SDS011;37253;48.736;9.294;2022-11-18T10:10:37;3.55;;;0.75;;
51190;SDS011;37253;48.736;9.294;2022-11-18T10:12:49;3.72;;;0.80;;
51190;SDS011;37253;48.736;9.294;2022-11-18T10:15:02;9.90;;;0.90;;
51190;SDS011;37253;48.736;9.294;2022-11-18T10:20:10;6.38;;;0.70;;
51190;SDS011;37253;48.736;9.294;2022-11-18T10:22:29;3.83;;;0.77;;
51190;SDS011;37253;48.736;9.294;2022-11-18T10:24:36;7.10;;;0.90;;
51190;SDS011;37253;48.736;9.294;2022-11-18T10:26:40;6.28;;;1.10;;
51190;SDS011;37253;48.736;9.294;2022-11-18T10:28:40;4.72;;;1.15;;
51190;SDS011;37253;48.736;9.294;2022-11-18T10:30:41;3.70;;;0.80;;
51190;SDS011;37253;48.736;9.294;2022-11-18T10:34:57;7.90;;;0.95;;
51190;SDS011;37253;48.736;9.294;2022-11-18T10:39:10;1.33;;;0.60;;
51190;SDS011;37253;48.736;9.294;2022-11-18T10:41:15;4.93;;;0.88;;
51190;SDS011;37253;48.736;9.294;2022-11-18T10:45:42;5.03;;;0.75;;
51190;SDS011;37253;48.736;9.294;2022-11-18T10:47:42;8.88;;;0.80;;
51190;SDS011;37253;48.736;9.294;2022-11-18T10:49:42;5.38;;;0.80;;
51190;SDS011;37253;48.736;9.294;2022-11-18T10:51:47;6.15;;;1.20;;
51190;SDS011;37253;48.736;9.294;2022-11-18T10:53:48;3.15;;;0.82;;
51190;SDS011;37253;48.736;9.294;2022-11-18T10:55:56;5.82;;;0.85;;
51190;SDS011;37253;48.736;9.294;2022-11-18T10:58:09;3.63;;;0.70;;
51190;SDS011;37253;48.736;9.294;2022-11-18T11:00:34;5.20;;;1.00;;
51190;SDS011;37253;48.736;9.294;2022-11-18T11:02:39;8.90;;;1.00;;
51190;SDS011;37253;48.736;9.294;2022-11-18T11:04:40;2.72;;;1.17;;
51190;SDS011;37253;48.736;9.294;2022-11-18T11:06:40;5.55;;;0.82;;
51190;SDS011;37253;48.736;9.294;2022-11-18T11:08:48;5.45;;;0.85;;
51190;SDS011;37253;48.736;9.294;2022-11-18T11:10:56;3.53;;;0.80;;
51190;SDS011;37253;48.736;9.294;2022-11-18T11:12:59;4.88;;;0.75;;
51190;SDS011;37253;48.736;9.294;2022-11-18T11:15:04;4.55;;;0.63;;
51190;SDS011;37253;48.736;9.294;2022-11-18T11:17:09;5.22;;;0.93;;
51190;SDS011;37253;48.736;9.294;2022-11-18T11:19:12;3.63;;;0.93;;
51190;SDS011;37253;48.736;9.294;2022-11-18T11:21:14;6.40;;;0.90;;
51190;SDS011;37253;48.736;9.294;2022-11-18T11:23:15;6.60;;;0.75;;
51190;SDS011;37253;48.736;9.294;2022-11-18T11:25:26;2.20;;;0.82;;
51190;SDS011;37253;48.736;9.294;2022-11-18T11:27:35;9.43;;;1.05;;
51190;SDS011;37253;48.736;9.294;2022-11-18T11:31:48;6.22;;;0.93;;
51190;SDS011;37253;48.736;9.294;2022-11-18T11:36:30;3.35;;;0.90;;
51190;SDS011;37253;48.736;9.294;2022-11-18T11:40:44;3.20;;;0.60;;
51190;SDS011;37253;48.736;9.294;2022-11-18T11:42:56;4.45;;;0.80;;
51190;SDS011;37253;48.736;9.294;2022-11-18T11:47:45;4.03;;;0.73;;
51190;SDS011;37253;48.736;9.294;2022-11-18T11:50:34;2.63;;;0.70;;
51190;SDS011;37253;48.736;9.294;2022-11-18T12:00:33;3.30;;;0.68;;
51190;SDS011;37253;48.736;9.294;2022-11-18T12:02:43;5.47;;;0.80;;
51190;SDS011;37253;48.736;9.294;2022-11-18T12:04:55;3.92;;;1.05;;
51190;SDS011;37253;48.736;9.294;2022-11-18T12:06:57;3.38;;;0.80;;
51190;SDS011;37253;48.736;9.294;2022-11-18T12:31:52;11.23;;;0.90;;
51190;SDS011;37253;48.736;9.294;2022-11-18T12:33:55;10.07;;;1.05;;
51190;SDS011;37253;48.736;9.294;2022-11-18T12:35:56;11.77;;;1.17;;
51190;SDS011;37253;48.736;9.294;2022-11-18T12:37:57;9.13;;;0.85;;
51190;SDS011;37253;48.736;9.294;2022-11-18T12:39:59;9.93;;;0.90;;
51190;SDS011;37253;48.736;9.294;2022-11-18T12:41:59;10.48;;;1.23;;
51190;SDS011;37253;48.736;9.294;2022-11-18T12:44:21;6.70;;;1.10;;
51190;SDS011;37253;48.736;9.294;2022-11-18T12:48:32;17.13;;;1.02;;
51190;SDS011;37253;48.736;9.294;2022-11-18T12:50:47;27.88;;;1.60;;
51190;SDS011;37253;48.736;9.294;2022-11-18T12:52:49;29.10;;;1.65;;
51190;SDS011;37253;48.736;9.294;2022-11-18T12:54:51;12.50;;;1.40;;
51190;SDS011;37253;48.736;9.294;2022-11-18T12:56:52;17.75;;;1.20;;
51190;SDS011;37253;48.736;9.294;2022-11-18T12:58:54;14.60;;;1.00;;
51190;SDS011;37253;48.736;9.294;2022-11-18T13:01:03;12.35;;;1.20;;
51190;SDS011;37253;48.736;9.294;2022-11-18T13:03:05;14.32;;;1.15;;
51190;SDS011;37253;48.736;9.294;2022-11-18T13:05:09;10.40;;;1.40;;
51190;SDS011;37253;48.736;9.294;2022-11-18T13:07:20;14.50;;;1.35;;
51190;SDS011;37253;48.736;9.294;2022-11-18T13:09:39;15.10;;;1.30;;
51190;SDS011;37253;48.736;9.294;2022-11-18T13:11:43;14.05;;;1.30;;
51190;SDS011;37253;48.736;9.294;2022-11-18T13:13:46;18.17;;;1.48;;
51190;SDS011;37253;48.736;9.294;2022-11-18T13:15:46;9.35;;;1.05;;
51190;SDS011;37253;48.736;9.294;2022-11-18T13:18:15;10.35;;;1.02;;
51190;SDS011;37253;48.736;9.294;2022-11-18T13:22:32;17.13;;;1.45;;
51190;SDS011;37253;48.736;9.294;2022-11-18T13:24:51;10.25;;;1.35;;
51190;SDS011;37253;48.736;9.294;2022-11-18T13:26:55;16.88;;;1.42;;
51190;SDS011;37253;48.736;9.294;2022-11-18T13:31:21;5.97;;;1.10;;
51190;SDS011;37253;48.736;9.294;2022-11-18T13:33:27;12.48;;;1.30;;
51190;SDS011;37253;48.736;9.294;2022-11-18T13:35:39;27.15;;;1.33;;
51190;SDS011;37253;48.736;9.294;2022-11-18T13:39:55;17.13;;;1.88;;
51190;SDS011;37253;48.736;9.294;2022-11-18T13:41:59;19.30;;;1.60;;
51190;SDS011;37253;48.736;9.294;2022-11-18T13:44:08;25.08;;;1.75;;
51190;SDS011;37253;48.736;9.294;2022-11-18T13:46:17;8.55;;;1.13;;
51190;SDS011;37253;48.736;9.294;2022-11-18T13:48:18;7.25;;;1.23;;
51190;SDS011;37253;48.736;9.294;2022-11-18T13:52:23;7.55;;;1.13;;
51190;SDS011;37253;48.736;9.294;2022-11-18T13:54:38;11.35;;;1.00;;
51190;SDS011;37253;48.736;9.294;2022-11-18T13:56:39;10.82;;;1.27;;
51190;SDS011;37253;48.736;9.294;2022-11-18T14:00:53;10.20;;;1.05;;
51190;SDS011;37253;48.736;9.294;2022-11-18T14:02:57;17.55;;;1.20;;
51190;SDS011;37253;48.736;9.294;2022-11-18T14:05:05;9.20;;;1.40;;
51190;SDS011;37253;48.736;9.294;2022-11-18T14:07:25;17.58;;;1.27;;